createdAt,value
2023-11-04T00:01:07.784Z,99.90
2023-11-04T00:03:42.643Z,99.90
2023-11-04T00:06:09.412Z,99.90
2023-11-04T00:08:36.614Z,99.90
2023-11-04T00:11:04.318Z,99.90
2023-11-04T00:13:31.047Z,99.90
2023-11-04T00:15:58.375Z,99.90
2023-11-04T00:18:25.271Z,99.90
2023-11-04T00:20:52.566Z,99.90
2023-11-04T00:23:23.588Z,99.90
2023-11-04T00:25:50.262Z,99.90
2023-11-04T00:28:19.467Z,99.90
2023-11-04T00:30:47.194Z,99.90
2023-11-04T00:33:34.093Z,99.90
2023-11-04T00:36:20.750Z,99.90
2023-11-04T00:39:08.701Z,99.90
2023-11-04T00:41:55.314Z,99.90
2023-11-04T00:44:43.056Z,99.90
2023-11-04T00:47:29.637Z,99.90
2023-11-04T00:50:20.805Z,99.90
2023-11-04T00:53:08.293Z,99.90
2023-11-04T00:55:54.840Z,99.90
2023-11-04T00:58:41.394Z,99.90
2023-11-04T01:01:28.993Z,99.90
2023-11-04T01:04:15.686Z,99.90
2023-11-04T01:07:02.369Z,99.90
2023-11-04T01:09:48.967Z,99.90
2023-11-04T01:12:35.606Z,99.90
2023-11-04T01:15:22.714Z,99.90
2023-11-04T01:18:10.403Z,99.90
2023-11-04T01:20:56.970Z,99.90
2023-11-04T01:23:43.526Z,99.90
2023-11-04T01:26:30.094Z,99.90
2023-11-04T01:29:16.670Z,99.90
2023-11-04T01:32:03.443Z,99.90
2023-11-04T01:34:50.799Z,99.90
2023-11-04T01:37:37.420Z,99.90
2023-11-04T01:40:23.975Z,99.90
2023-11-04T01:43:10.514Z,99.90
2023-11-04T01:46:13.739Z,99.90
2023-11-04T01:49:00.642Z,99.90
2023-11-04T01:51:48.325Z,99.90
2023-11-04T01:54:35.690Z,99.90
2023-11-04T01:57:22.400Z,99.90
2023-11-04T02:00:10.412Z,99.90
2023-11-04T02:03:01.159Z,99.90
2023-11-04T02:05:48.006Z,99.90
2023-11-04T02:08:35.572Z,99.90
2023-11-04T02:11:22.596Z,99.90
2023-11-04T02:14:11.214Z,99.90
2023-11-04T02:16:57.806Z,99.90
2023-11-04T02:19:44.657Z,99.90
2023-11-04T02:22:31.975Z,99.90
2023-11-04T02:25:18.663Z,99.90
2023-11-04T02:28:05.581Z,99.90
2023-11-04T02:30:52.177Z,99.90
2023-11-04T02:33:41.472Z,99.90
2023-11-04T02:36:28.090Z,99.90
2023-11-04T02:39:15.362Z,99.90
2023-11-04T02:42:01.927Z,99.90
2023-11-04T02:44:48.524Z,99.90
2023-11-04T02:47:35.151Z,99.90
2023-11-04T02:50:21.767Z,99.90
2023-11-04T02:53:08.833Z,99.90
2023-11-04T02:55:56.049Z,99.90
2023-11-04T02:58:42.641Z,99.90
2023-11-04T03:01:29.228Z,99.90
2023-11-04T03:04:16.611Z,99.90
2023-11-04T03:07:03.697Z,99.90
2023-11-04T03:09:50.320Z,99.90
2023-11-04T03:12:37.708Z,99.90
2023-11-04T03:15:24.293Z,99.90
2023-11-04T03:18:10.939Z,99.90
2023-11-04T03:20:57.541Z,99.90
2023-11-04T03:23:45.178Z,99.90
2023-11-04T03:26:31.709Z,99.90
2023-11-04T03:29:18.962Z,99.90
2023-11-04T03:32:06.105Z,99.90
2023-11-04T03:34:52.728Z,99.90
2023-11-04T03:37:39.322Z,99.90
2023-11-04T03:40:25.849Z,99.90
2023-11-04T03:43:14.382Z,99.90
2023-11-04T03:46:04.168Z,99.90
2023-11-04T03:48:51.101Z,99.90
2023-11-04T03:51:37.744Z,99.90
2023-11-04T03:54:24.346Z,99.90
2023-11-04T03:57:10.979Z,99.90
2023-11-04T03:59:57.980Z,99.90
2023-11-04T04:02:45.227Z,99.90
2023-11-04T04:05:32.280Z,99.90
2023-11-04T04:08:18.835Z,99.90
2023-11-04T04:11:05.800Z,99.90
2023-11-04T04:13:52.399Z,99.90
2023-11-04T04:16:39.000Z,99.90
2023-11-04T04:19:26.233Z,99.90
2023-11-04T04:22:12.795Z,99.90
2023-11-04T04:24:59.721Z,99.90
2023-11-04T04:27:46.588Z,99.90
2023-11-04T04:30:33.166Z,99.90
2023-11-04T04:33:19.781Z,99.90
2023-11-04T04:36:08.097Z,99.90
2023-11-04T04:38:54.654Z,99.90
2023-11-04T04:41:41.200Z,99.90
2023-11-04T04:44:27.725Z,99.90
2023-11-04T04:47:14.327Z,99.90
2023-11-04T04:50:00.894Z,99.90
2023-11-04T04:52:48.136Z,99.90
2023-11-04T04:55:34.713Z,99.90
2023-11-04T04:58:21.884Z,99.90
2023-11-04T05:01:08.575Z,99.90
2023-11-04T05:03:55.228Z,99.90
2023-11-04T05:06:41.895Z,99.90
2023-11-04T05:09:29.138Z,99.90
2023-11-04T05:12:15.775Z,99.90
2023-11-04T05:15:02.863Z,99.90
2023-11-04T05:17:49.629Z,99.90
2023-11-04T05:20:36.585Z,99.90
2023-11-04T05:23:23.212Z,99.90
2023-11-04T05:26:10.521Z,99.90
2023-11-04T05:28:57.109Z,99.90
2023-11-04T05:31:43.665Z,99.90
2023-11-04T05:34:30.228Z,99.90
2023-11-04T05:37:16.765Z,99.90
2023-11-04T05:40:04.459Z,99.90
2023-11-04T05:42:51.831Z,99.90
2023-11-04T05:45:38.515Z,99.90
2023-11-04T05:48:25.267Z,99.90
2023-11-04T05:51:12.022Z,99.90
2023-11-04T05:53:58.588Z,99.90
2023-11-04T05:56:45.172Z,99.90
2023-11-04T05:59:32.412Z,99.90
2023-11-04T06:02:19.061Z,99.90
2023-11-04T06:05:06.602Z,99.90
2023-11-04T06:07:53.189Z,99.90
2023-11-04T06:10:40.440Z,99.90
2023-11-04T06:13:26.979Z,99.90
2023-11-04T06:16:14.181Z,99.90
2023-11-04T06:19:01.015Z,99.90
2023-11-04T06:21:47.595Z,99.90
2023-11-04T06:24:37.896Z,99.90
2023-11-04T06:27:24.547Z,99.90
2023-11-04T06:30:13.495Z,99.90
2023-11-04T06:33:00.765Z,99.90
2023-11-04T06:35:47.386Z,99.90
2023-11-04T06:38:33.954Z,99.90
2023-11-04T06:41:20.520Z,99.90
2023-11-04T06:44:07.524Z,99.90
2023-11-04T06:46:54.071Z,99.90
2023-11-04T06:49:41.342Z,99.90
2023-11-04T06:52:30.102Z,99.90
2023-11-04T06:54:56.996Z,99.90
2023-11-04T06:57:23.744Z,99.90
2023-11-04T06:59:50.387Z,99.90
2023-11-04T07:02:17.060Z,99.90
2023-11-04T07:04:44.614Z,99.90
2023-11-04T07:07:11.376Z,99.90
2023-11-04T07:09:39.198Z,99.90
2023-11-04T07:12:06.056Z,99.90
2023-11-04T07:14:33.033Z,99.90
2023-11-04T07:17:00.287Z,99.90
2023-11-04T07:19:27.216Z,99.90
2023-11-04T07:21:54.637Z,99.90
2023-11-04T07:24:22.115Z,99.90
2023-11-04T07:26:48.781Z,99.90
2023-11-04T07:29:17.524Z,99.90
2023-11-04T07:31:44.246Z,99.90
2023-11-04T07:34:11.019Z,99.90
2023-11-04T07:36:37.943Z,99.90
2023-11-04T07:39:07.317Z,99.90
2023-11-04T07:41:34.582Z,99.90
2023-11-04T07:44:01.251Z,99.90
2023-11-04T07:46:27.916Z,99.90
2023-11-04T07:48:54.670Z,99.90
2023-11-04T07:51:22.348Z,99.90
2023-11-04T07:53:49.000Z,99.90
2023-11-04T07:56:16.476Z,99.90
2023-11-04T07:58:43.165Z,99.90
2023-11-04T08:01:09.891Z,99.90
2023-11-04T08:03:36.675Z,99.90
2023-11-04T08:06:05.190Z,99.90
2023-11-04T08:08:31.928Z,99.90
2023-11-04T08:10:58.561Z,99.90
2023-11-04T08:13:25.869Z,99.90
2023-11-04T08:15:52.589Z,99.90
2023-11-04T08:18:19.391Z,99.90
2023-11-04T08:20:46.598Z,99.90
2023-11-04T08:23:13.342Z,99.90
2023-11-04T08:25:40.041Z,99.90
2023-11-04T08:28:06.774Z,99.90
2023-11-04T08:30:35.233Z,99.90
2023-11-04T08:33:02.007Z,99.90
2023-11-04T08:35:28.709Z,99.90
2023-11-04T08:37:55.765Z,99.90
2023-11-04T08:40:22.658Z,99.90
2023-11-04T08:42:49.394Z,99.90
2023-11-04T08:45:16.449Z,99.90
2023-11-04T08:47:43.847Z,99.90
2023-11-04T08:50:11.228Z,99.90
2023-11-04T08:52:39.018Z,99.90
2023-11-04T08:55:06.776Z,99.90
2023-11-04T08:57:33.596Z,99.90
2023-11-04T09:00:01.105Z,99.90
2023-11-04T09:02:27.817Z,99.90
2023-11-04T09:05:02.013Z,99.90
2023-11-04T09:07:33.072Z,99.90
2023-11-04T09:09:59.799Z,99.90
2023-11-04T09:12:26.947Z,99.90
2023-11-04T09:14:53.608Z,99.90
2023-11-04T09:17:21.749Z,99.90
2023-11-04T09:19:48.432Z,99.90
2023-11-04T09:22:15.965Z,99.90
2023-11-04T09:24:42.688Z,99.90
2023-11-04T09:27:09.360Z,99.90
2023-11-04T09:29:36.693Z,99.90
2023-11-04T09:32:04.441Z,99.90
2023-11-04T09:34:31.862Z,99.90
2023-11-04T09:36:59.722Z,99.90
2023-11-04T09:39:27.802Z,99.90
2023-11-04T09:41:55.165Z,99.90
2023-11-04T09:44:22.343Z,99.90
2023-11-04T09:46:50.274Z,99.90
2023-11-04T09:49:18.997Z,99.90
2023-11-04T09:51:47.134Z,99.90
2023-11-04T09:54:15.651Z,99.90
2023-11-04T09:56:44.739Z,99.90
2023-11-04T09:59:11.931Z,99.90
2023-11-04T10:01:40.715Z,99.90
2023-11-04T10:04:08.061Z,99.90
2023-11-04T10:06:35.700Z,95.80
2023-11-04T10:09:03.017Z,93.80
2023-11-04T10:11:30.267Z,93.00
2023-11-04T10:13:58.215Z,92.80
2023-11-04T10:16:25.524Z,93.40
2023-11-04T10:18:53.448Z,90.90
2023-11-04T10:21:22.284Z,89.50
2023-11-04T10:23:50.221Z,81.10
2023-11-04T10:26:18.116Z,62.60
2023-11-04T10:28:45.277Z,54.10
2023-11-04T10:31:17.855Z,51.40
2023-11-04T10:33:46.606Z,51.10
2023-11-04T10:36:13.974Z,47.70
2023-11-04T10:38:44.966Z,44.30
2023-11-04T10:41:15.940Z,36.90
2023-11-04T10:43:54.240Z,30.60
2023-11-04T10:46:31.984Z,28.60
2023-11-04T10:49:07.986Z,22.80
2023-11-04T10:51:42.591Z,22.40
2023-11-04T10:54:16.115Z,23.00
2023-11-04T10:56:44.838Z,22.40
2023-11-04T10:59:19.180Z,5.60
2023-11-04T11:01:48.148Z,6.90
2023-11-04T11:04:17.259Z,4.40
2023-11-04T11:06:47.008Z,15.20
2023-11-04T11:09:14.666Z,18.90
2023-11-04T11:11:47.576Z,10.30
2023-11-04T11:14:16.457Z,7.00
2023-11-04T11:16:43.692Z,6.10
2023-11-04T11:19:12.319Z,1.00
2023-11-04T11:21:49.985Z,5.10
2023-11-04T11:24:17.415Z,5.80
2023-11-04T11:26:48.609Z,10.20
2023-11-04T11:29:23.792Z,10.90
2023-11-04T11:31:54.100Z,12.40
2023-11-04T11:34:23.374Z,9.90
2023-11-04T11:36:50.632Z,6.10
2023-11-04T11:39:17.820Z,5.60
2023-11-04T11:41:45.578Z,12.40
2023-11-04T11:44:14.990Z,17.30
2023-11-04T11:46:43.358Z,11.80
2023-11-04T11:49:10.867Z,8.30
2023-11-04T11:51:38.786Z,2.10
2023-11-04T11:54:06.356Z,1.00
2023-11-04T11:56:33.640Z,1.00
2023-11-04T11:59:06.503Z,1.00
2023-11-04T12:01:34.230Z,7.40
2023-11-04T12:04:02.108Z,10.10
2023-11-04T12:06:29.833Z,5.90
2023-11-04T12:08:57.736Z,1.00
2023-11-04T12:11:25.740Z,4.30
2023-11-04T12:13:52.951Z,13.30
2023-11-04T12:16:20.474Z,18.90
2023-11-04T12:18:48.213Z,25.30
2023-11-04T12:21:15.532Z,31.60
2023-11-04T12:23:43.214Z,21.90
2023-11-04T12:26:11.072Z,37.50
2023-11-04T12:28:39.957Z,32.50
2023-11-04T12:31:07.537Z,33.70
2023-11-04T12:33:36.165Z,42.00
2023-11-04T12:36:07.551Z,52.90
2023-11-04T12:38:35.380Z,48.00
2023-11-04T12:41:03.387Z,66.70
2023-11-04T12:43:32.977Z,75.30
2023-11-04T12:46:01.935Z,94.40
2023-11-04T12:48:29.258Z,98.70
2023-11-04T12:50:56.509Z,99.90
2023-11-04T12:53:23.830Z,99.90
2023-11-04T12:55:51.602Z,99.90
2023-11-04T12:58:18.791Z,99.90
2023-11-04T13:00:46.808Z,99.90
2023-11-04T13:03:14.063Z,99.90
2023-11-04T13:05:41.939Z,99.90
2023-11-04T13:08:10.195Z,99.90
2023-11-04T13:10:37.424Z,99.90
2023-11-04T13:13:04.660Z,99.90
2023-11-04T13:15:31.884Z,99.90
2023-11-04T13:18:00.010Z,99.90
2023-11-04T13:20:27.224Z,99.90
2023-11-04T13:22:54.388Z,99.90
2023-11-04T13:25:21.743Z,99.10
2023-11-04T13:27:49.938Z,98.50
2023-11-04T13:30:17.384Z,97.60
2023-11-04T13:32:44.807Z,99.90
2023-11-04T13:35:13.695Z,99.90
2023-11-04T13:37:41.850Z,99.90
2023-11-04T13:40:10.024Z,99.90
2023-11-04T13:42:37.613Z,99.90
2023-11-04T13:45:07.205Z,99.90
2023-11-04T13:47:37.415Z,99.90
2023-11-04T13:50:06.851Z,99.90
2023-11-04T13:52:35.154Z,99.90
2023-11-04T13:55:02.483Z,99.90
2023-11-04T13:57:29.682Z,99.90
2023-11-04T13:59:56.871Z,99.90
2023-11-04T14:02:27.238Z,99.90
2023-11-04T14:04:56.065Z,99.90
2023-11-04T14:07:23.286Z,99.90
2023-11-04T14:09:52.109Z,99.90
2023-11-04T14:12:19.387Z,99.90
2023-11-04T14:14:47.442Z,99.90
2023-11-04T14:17:14.608Z,99.90
2023-11-04T14:19:41.922Z,99.90
2023-11-04T14:22:09.201Z,99.90
2023-11-04T14:24:36.616Z,99.90
2023-11-04T14:27:05.528Z,99.90
2023-11-04T14:29:32.725Z,99.90
2023-11-04T14:31:59.914Z,99.90
2023-11-04T14:34:27.749Z,99.90
2023-11-04T14:36:54.992Z,99.90
2023-11-04T14:39:22.160Z,99.90
2023-11-04T14:41:51.730Z,99.90
2023-11-04T14:44:21.416Z,99.90
2023-11-04T14:46:49.739Z,99.90
2023-11-04T14:49:17.428Z,99.90
2023-11-04T14:51:44.758Z,99.90
2023-11-04T14:54:12.000Z,99.90
2023-11-04T14:56:39.953Z,99.90
2023-11-04T14:59:07.230Z,99.90
2023-11-04T15:01:45.401Z,99.90
2023-11-04T15:04:13.262Z,99.90
2023-11-04T15:06:40.638Z,99.90
2023-11-04T15:09:08.948Z,99.90
2023-11-04T15:11:36.728Z,99.90
2023-11-04T15:14:04.375Z,99.90
2023-11-04T15:16:31.975Z,99.90
2023-11-04T15:19:00.380Z,99.90
2023-11-04T15:21:28.597Z,99.90
2023-11-04T15:23:55.974Z,99.90
2023-11-04T15:26:23.428Z,99.90
2023-11-04T15:28:51.948Z,99.90
2023-11-04T15:31:20.424Z,99.90
2023-11-04T15:33:47.711Z,99.90
2023-11-04T15:36:16.008Z,99.90
2023-11-04T15:38:44.573Z,99.90
2023-11-04T15:41:12.061Z,99.90
2023-11-04T15:43:39.322Z,99.90
2023-11-04T15:46:11.575Z,99.90
2023-11-04T15:48:38.780Z,99.90
2023-11-04T15:51:06.904Z,99.90
2023-11-04T15:53:34.845Z,99.90
2023-11-04T15:56:03.065Z,99.90
2023-11-04T15:58:31.637Z,99.90
2023-11-04T16:00:59.146Z,99.90
2023-11-04T16:03:26.404Z,99.90
2023-11-04T16:05:54.377Z,99.90
2023-11-04T16:08:22.479Z,99.90
2023-11-04T16:10:50.311Z,99.90
2023-11-04T16:13:18.970Z,99.90
2023-11-04T16:15:46.324Z,99.90
2023-11-04T16:18:13.646Z,99.90
2023-11-04T16:20:40.944Z,99.90
2023-11-04T16:23:08.665Z,99.90
2023-11-04T16:25:35.880Z,99.90
2023-11-04T16:28:04.059Z,99.90
2023-11-04T16:30:31.270Z,99.90
2023-11-04T16:32:58.690Z,99.90
2023-11-04T16:35:25.952Z,99.90
2023-11-04T16:37:53.175Z,99.90
2023-11-04T16:40:20.354Z,99.90
2023-11-04T16:42:47.689Z,99.90
2023-11-04T16:45:16.973Z,99.90
2023-11-04T16:47:44.990Z,99.90
2023-11-04T16:50:14.572Z,99.90
2023-11-04T16:52:41.970Z,99.90
2023-11-04T16:55:10.894Z,99.90
2023-11-04T16:57:38.204Z,99.90
2023-11-04T17:00:09.860Z,99.90
2023-11-04T17:02:37.927Z,99.90
2023-11-04T17:05:05.920Z,99.90
2023-11-04T17:07:34.469Z,99.90
2023-11-04T17:10:03.084Z,99.90
2023-11-04T17:12:30.384Z,99.90
2023-11-04T17:14:57.607Z,99.90
2023-11-04T17:17:24.804Z,99.90
2023-11-04T17:19:52.908Z,99.90
2023-11-04T17:22:20.231Z,99.90
2023-11-04T17:24:49.033Z,99.90
2023-11-04T17:27:16.289Z,99.90
2023-11-04T17:29:43.784Z,99.90
2023-11-04T17:32:11.072Z,99.90
2023-11-04T17:34:38.227Z,99.90
2023-11-04T17:37:06.159Z,99.90
2023-11-04T17:39:33.390Z,99.90
2023-11-04T17:42:00.852Z,99.90
2023-11-04T17:44:28.197Z,99.90
2023-11-04T17:46:55.555Z,99.90
2023-11-04T17:49:23.656Z,99.90
2023-11-04T17:51:50.972Z,99.90
2023-11-04T17:54:19.130Z,99.90
2023-11-04T17:56:47.053Z,99.90
2023-11-04T17:59:14.336Z,99.90
2023-11-04T18:01:42.209Z,99.90
2023-11-04T18:04:09.578Z,99.90
2023-11-04T18:06:36.904Z,99.90
2023-11-04T18:09:04.181Z,99.90
2023-11-04T18:11:32.557Z,99.90
2023-11-04T18:13:59.780Z,99.90
2023-11-04T18:16:26.995Z,99.90
2023-11-04T18:18:54.535Z,99.90
2023-11-04T18:21:21.802Z,99.90
2023-11-04T18:23:48.951Z,99.90
2023-11-04T18:26:16.277Z,99.90
2023-11-04T18:28:44.289Z,99.90
2023-11-04T18:31:11.592Z,99.90
2023-11-04T18:33:38.874Z,99.90
2023-11-04T18:36:07.509Z,99.90
2023-11-04T18:38:34.732Z,99.90
2023-11-04T18:41:02.439Z,99.90
2023-11-04T18:43:29.653Z,99.90
2023-11-04T18:45:57.668Z,99.90
2023-11-04T18:48:25.488Z,99.90
2023-11-04T18:50:53.121Z,99.90
2023-11-04T18:53:20.301Z,99.90
2023-11-04T18:55:47.476Z,99.90
2023-11-04T18:58:14.828Z,99.90
2023-11-04T19:00:41.993Z,99.90
2023-11-04T19:03:10.043Z,99.90
2023-11-04T19:05:38.321Z,99.90
2023-11-04T19:08:05.628Z,99.90
2023-11-04T19:10:35.530Z,99.90
2023-11-04T19:13:02.747Z,99.90
2023-11-04T19:15:29.946Z,99.90
2023-11-04T19:17:57.134Z,99.90
2023-11-04T19:20:25.076Z,99.90
2023-11-04T19:22:52.262Z,99.90
2023-11-04T19:25:19.540Z,99.90
2023-11-04T19:27:47.456Z,99.90
2023-11-04T19:30:14.954Z,99.90
2023-11-04T19:32:42.299Z,99.90
2023-11-04T19:35:10.290Z,99.90
2023-11-04T19:37:38.375Z,99.90
2023-11-04T19:40:06.954Z,99.90
2023-11-04T19:42:34.226Z,99.90
2023-11-04T19:45:01.709Z,99.90
2023-11-04T19:47:29.867Z,99.90
2023-11-04T19:49:57.256Z,99.90
2023-11-04T19:52:24.809Z,99.90
2023-11-04T19:54:53.868Z,99.90
2023-11-04T19:57:21.066Z,99.90
2023-11-04T19:59:48.650Z,99.90
2023-11-04T20:02:15.943Z,99.90
2023-11-04T20:04:43.261Z,99.90
2023-11-04T20:07:10.600Z,99.90
2023-11-04T20:09:37.846Z,99.90
2023-11-04T20:12:06.566Z,99.90
2023-11-04T20:14:36.097Z,99.90
2023-11-04T20:17:03.533Z,99.90
2023-11-04T20:19:30.719Z,99.90
2023-11-04T20:21:59.637Z,99.90
2023-11-04T20:24:27.240Z,99.90
2023-11-04T20:26:54.450Z,99.90
2023-11-04T20:29:22.855Z,99.90
2023-11-04T20:31:52.550Z,99.90
2023-11-04T20:34:20.387Z,99.90
2023-11-04T20:36:47.631Z,99.90
2023-11-04T20:39:14.837Z,99.90
2023-11-04T20:41:42.168Z,99.90
2023-11-04T20:44:09.473Z,99.90
2023-11-04T20:46:38.627Z,99.90
2023-11-04T20:49:05.989Z,99.90
2023-11-04T20:51:35.457Z,99.90
2023-11-04T20:54:02.678Z,99.90
2023-11-04T20:56:29.981Z,99.90
2023-11-04T20:58:59.029Z,99.90
2023-11-04T21:01:26.512Z,99.90
2023-11-04T21:03:54.463Z,99.90
2023-11-04T21:06:21.880Z,99.90
2023-11-04T21:08:49.068Z,99.90
2023-11-04T21:11:17.445Z,99.90
2023-11-04T21:13:44.751Z,99.90
2023-11-04T21:16:12.059Z,99.90
2023-11-04T21:18:40.266Z,99.90
2023-11-04T21:21:08.669Z,99.90
2023-11-04T21:23:36.314Z,99.90
2023-11-04T21:26:04.535Z,99.90
2023-11-04T21:28:31.831Z,99.90
2023-11-04T21:30:59.274Z,99.90
2023-11-04T21:33:27.659Z,99.90
2023-11-04T21:35:55.832Z,99.90
2023-11-04T21:38:23.716Z,99.90
2023-11-04T21:40:51.351Z,99.90
2023-11-04T21:43:18.574Z,99.90
2023-11-04T21:45:45.774Z,99.90
2023-11-04T21:48:14.385Z,99.90
2023-11-04T21:50:41.824Z,99.90
2023-11-04T21:53:09.451Z,99.90
2023-11-04T21:55:37.334Z,99.90
2023-11-04T21:58:04.541Z,99.90
2023-11-04T22:00:31.767Z,99.90
2023-11-04T22:02:59.015Z,99.90
2023-11-04T22:05:26.275Z,99.90
2023-11-04T22:07:53.547Z,99.90
2023-11-04T22:10:20.931Z,99.90
2023-11-04T22:12:48.869Z,99.90
2023-11-04T22:15:16.024Z,99.90
2023-11-04T22:17:43.304Z,99.90
2023-11-04T22:20:11.164Z,99.90
2023-11-04T22:22:40.583Z,99.90
2023-11-04T22:25:08.081Z,99.90
2023-11-04T22:27:35.538Z,99.90
2023-11-04T22:30:03.844Z,99.90
2023-11-04T22:32:31.117Z,99.90
2023-11-04T22:34:58.278Z,99.90
2023-11-04T22:37:25.666Z,99.90
2023-11-04T22:39:52.831Z,99.90
2023-11-04T22:42:22.576Z,99.90
2023-11-04T22:44:49.723Z,99.90
2023-11-04T22:47:17.615Z,99.90
2023-11-04T22:49:45.065Z,99.90
2023-11-04T22:52:12.278Z,99.90
2023-11-04T22:54:39.628Z,99.90
2023-11-04T22:57:06.784Z,99.90
2023-11-04T22:59:33.929Z,99.90
2023-11-04T23:02:01.101Z,99.90
2023-11-04T23:04:29.101Z,99.90
2023-11-04T23:06:56.595Z,99.90
2023-11-04T23:09:24.367Z,99.90
2023-11-04T23:11:51.946Z,99.90
2023-11-04T23:14:19.142Z,99.90
2023-11-04T23:16:46.279Z,99.90
2023-11-04T23:19:13.518Z,99.90
2023-11-04T23:21:41.424Z,99.90
2023-11-04T23:24:09.014Z,99.90
2023-11-04T23:26:36.265Z,99.90
2023-11-04T23:29:04.089Z,99.90
2023-11-04T23:31:31.282Z,99.90
2023-11-04T23:33:58.769Z,99.90
2023-11-04T23:36:26.181Z,99.90
2023-11-04T23:38:54.080Z,99.90
2023-11-04T23:41:21.304Z,99.90
2023-11-04T23:43:48.519Z,99.90
2023-11-04T23:46:15.703Z,99.90
2023-11-04T23:48:42.899Z,99.90
2023-11-04T23:51:10.111Z,99.90
2023-11-04T23:53:37.308Z,99.90
2023-11-04T23:56:07.622Z,99.90
2023-11-04T23:58:34.867Z,99.90
